Terminal Aerodrome Forecast
Issued by NWS Rapid City, SD

Home | Current Version | Previous Version | Text Only | Print | Product List | Glossary Off
Versions: 1 2 3 4 5 6 7 8 9 10 11 12 13 14

082
FTUS43 KUNR 230528
TAFRAP
TAF
KRAP 230528Z 2306/2406 35018G28KT P6SM BKN100
     FM231400 33024G34KT P6SM SCT150
     FM232300 34012KT P6SM SCT250=

USA.gov is the U.S. government's official web portal to all federal, state and local government web resources and services.